sensor_id;sensor_type;location;lat;lon;timestamp;pressure;altitude;pressure_sealevel;temperature;humidity
41250;BME280;26984;59.928;30.306;2023-04-21T00:01:45;101947.00;;;5.28;100.00
41250;BME280;26984;59.928;30.306;2023-04-21T00:04:13;101938.72;;;5.21;100.00
41250;BME280;26984;59.928;30.306;2023-04-21T00:06:41;101935.59;;;5.26;100.00
41250;BME280;26984;59.928;30.306;2023-04-21T00:09:09;101933.63;;;5.28;100.00
41250;BME280;26984;59.928;30.306;2023-04-21T00:11:36;101929.03;;;5.20;100.00
41250;BME280;26984;59.928;30.306;2023-04-21T00:14:04;101927.66;;;5.16;100.00
41250;BME280;26984;59.928;30.306;2023-04-21T00:16:31;101933.31;;;5.13;100.00
41250;BME280;26984;59.928;30.306;2023-04-21T00:19:00;101931.84;;;5.19;100.00
41250;BME280;26984;59.928;30.306;2023-04-21T00:21:31;101925.66;;;5.18;100.00
41250;BME280;26984;59.928;30.306;2023-04-21T00:23:59;101925.53;;;5.20;100.00
41250;BME280;26984;59.928;30.306;2023-04-21T00:26:26;101923.94;;;5.27;100.00
41250;BME280;26984;59.928;30.306;2023-04-21T00:28:54;101930.50;;;5.33;100.00
41250;BME280;26984;59.928;30.306;2023-04-21T00:31:22;101923.03;;;5.36;100.00
41250;BME280;26984;59.928;30.306;2023-04-21T00:33:50;101919.97;;;5.31;100.00
41250;BME280;26984;59.928;30.306;2023-04-21T00:36:22;101918.59;;;5.27;100.00
41250;BME280;26984;59.928;30.306;2023-04-21T00:38:53;101916.75;;;5.27;100.00
41250;BME280;26984;59.928;30.306;2023-04-21T00:41:20;101917.59;;;5.28;100.00
41250;BME280;26984;59.928;30.306;2023-04-21T00:46:31;101902.16;;;5.22;100.00
41250;BME280;26984;59.928;30.306;2023-04-21T00:48:58;101906.97;;;5.18;100.00
41250;BME280;26984;59.928;30.306;2023-04-21T00:51:28;101903.63;;;5.16;100.00
41250;BME280;26984;59.928;30.306;2023-04-21T00:53:59;101910.47;;;5.19;100.00
41250;BME280;26984;59.928;30.306;2023-04-21T00:56:29;101910.59;;;5.27;100.00
41250;BME280;26984;59.928;30.306;2023-04-21T00:58:57;101897.13;;;5.19;100.00
41250;BME280;26984;59.928;30.306;2023-04-21T01:01:25;101898.66;;;5.21;100.00
41250;BME280;26984;59.928;30.306;2023-04-21T01:03:55;101905.97;;;5.19;100.00
41250;BME280;26984;59.928;30.306;2023-04-21T01:06:23;101902.47;;;5.19;100.00
41250;BME280;26984;59.928;30.306;2023-04-21T01:08:53;101898.13;;;5.18;100.00
41250;BME280;26984;59.928;30.306;2023-04-21T01:11:21;101903.47;;;5.18;100.00
41250;BME280;26984;59.928;30.306;2023-04-21T01:13:51;101904.22;;;5.10;100.00
41250;BME280;26984;59.928;30.306;2023-04-21T01:16:18;101900.84;;;5.08;100.00
41250;BME280;26984;59.928;30.306;2023-04-21T01:18:46;101901.38;;;5.12;100.00
41250;BME280;26984;59.928;30.306;2023-04-21T01:21:14;101899.66;;;5.20;100.00
41250;BME280;26984;59.928;30.306;2023-04-21T01:23:43;101894.38;;;5.28;100.00
41250;BME280;26984;59.928;30.306;2023-04-21T01:26:11;101897.91;;;5.29;100.00
41250;BME280;26984;59.928;30.306;2023-04-21T01:28:38;101903.13;;;5.31;100.00
41250;BME280;26984;59.928;30.306;2023-04-21T01:31:06;101893.56;;;5.28;100.00
41250;BME280;26984;59.928;30.306;2023-04-21T01:33:33;101893.94;;;5.33;100.00
41250;BME280;26984;59.928;30.306;2023-04-21T01:36:01;101898.13;;;5.36;100.00
41250;BME280;26984;59.928;30.306;2023-04-21T01:38:28;101891.78;;;5.37;100.00
41250;BME280;26984;59.928;30.306;2023-04-21T01:40:59;101889.75;;;5.31;100.00
41250;BME280;26984;59.928;30.306;2023-04-21T01:43:27;101887.75;;;5.33;100.00
41250;BME280;26984;59.928;30.306;2023-04-21T01:45:55;101890.03;;;5.27;100.00
41250;BME280;26984;59.928;30.306;2023-04-21T01:48:23;101888.75;;;5.32;100.00
41250;BME280;26984;59.928;30.306;2023-04-21T01:50:50;101881.88;;;5.29;100.00
41250;BME280;26984;59.928;30.306;2023-04-21T01:53:18;101874.84;;;5.28;100.00
41250;BME280;26984;59.928;30.306;2023-04-21T01:55:45;101883.88;;;5.27;100.00
41250;BME280;26984;59.928;30.306;2023-04-21T01:58:14;101877.28;;;5.21;100.00
41250;BME280;26984;59.928;30.306;2023-04-21T02:00:42;101877.34;;;5.29;100.00
41250;BME280;26984;59.928;30.306;2023-04-21T02:03:10;101884.41;;;5.31;100.00
41250;BME280;26984;59.928;30.306;2023-04-21T02:05:37;101893.31;;;5.21;100.00
41250;BME280;26984;59.928;30.306;2023-04-21T02:08:05;101886.53;;;5.27;100.00
41250;BME280;26984;59.928;30.306;2023-04-21T02:10:32;101890.72;;;5.29;100.00
41250;BME280;26984;59.928;30.306;2023-04-21T02:13:00;101897.53;;;5.24;100.00
41250;BME280;26984;59.928;30.306;2023-04-21T02:15:30;101893.47;;;5.20;100.00
41250;BME280;26984;59.928;30.306;2023-04-21T02:17:58;101898.59;;;5.31;100.00
41250;BME280;26984;59.928;30.306;2023-04-21T02:20:26;101885.84;;;5.25;100.00
41250;BME280;26984;59.928;30.306;2023-04-21T02:22:53;101883.63;;;5.20;100.00
41250;BME280;26984;59.928;30.306;2023-04-21T02:25:21;101876.91;;;5.16;100.00
41250;BME280;26984;59.928;30.306;2023-04-21T02:27:48;101882.38;;;5.15;100.00
41250;BME280;26984;59.928;30.306;2023-04-21T02:30:16;101883.50;;;5.12;100.00
41250;BME280;26984;59.928;30.306;2023-04-21T02:32:45;101882.38;;;5.15;100.00
41250;BME280;26984;59.928;30.306;2023-04-21T02:35:12;101875.22;;;5.15;100.00
41250;BME280;26984;59.928;30.306;2023-04-21T02:37:40;101871.84;;;5.13;100.00
41250;BME280;26984;59.928;30.306;2023-04-21T02:40:08;101866.91;;;5.18;100.00
41250;BME280;26984;59.928;30.306;2023-04-21T02:42:36;101868.03;;;5.16;100.00
41250;BME280;26984;59.928;30.306;2023-04-21T02:45:03;101864.22;;;5.18;100.00
41250;BME280;26984;59.928;30.306;2023-04-21T02:47:31;101865.75;;;5.21;100.00
41250;BME280;26984;59.928;30.306;2023-04-21T02:50:00;101863.88;;;5.31;100.00
41250;BME280;26984;59.928;30.306;2023-04-21T02:52:28;101863.56;;;5.34;100.00
41250;BME280;26984;59.928;30.306;2023-04-21T02:54:55;101859.19;;;5.33;100.00
41250;BME280;26984;59.928;30.306;2023-04-21T02:57:24;101853.19;;;5.31;100.00
41250;BME280;26984;59.928;30.306;2023-04-21T02:59:52;101855.09;;;5.39;100.00
41250;BME280;26984;59.928;30.306;2023-04-21T03:02:19;101849.13;;;5.45;100.00
41250;BME280;26984;59.928;30.306;2023-04-21T03:04:48;101852.09;;;5.42;100.00
41250;BME280;26984;59.928;30.306;2023-04-21T03:07:17;101856.31;;;5.44;100.00
41250;BME280;26984;59.928;30.306;2023-04-21T03:09:44;101848.06;;;5.38;100.00
41250;BME280;26984;59.928;30.306;2023-04-21T03:12:12;101847.84;;;5.31;100.00
41250;BME280;26984;59.928;30.306;2023-04-21T03:14:39;101855.84;;;5.31;100.00
41250;BME280;26984;59.928;30.306;2023-04-21T03:17:07;101856.97;;;5.28;100.00
41250;BME280;26984;59.928;30.306;2023-04-21T03:19:34;101857.28;;;5.25;100.00
41250;BME280;26984;59.928;30.306;2023-04-21T03:22:02;101856.75;;;5.22;100.00
41250;BME280;26984;59.928;30.306;2023-04-21T03:24:31;101856.75;;;5.22;100.00
41250;BME280;26984;59.928;30.306;2023-04-21T03:26:59;101859.19;;;5.33;100.00
41250;BME280;26984;59.928;30.306;2023-04-21T03:29:28;101858.53;;;5.31;100.00
41250;BME280;26984;59.928;30.306;2023-04-21T03:31:55;101855.78;;;5.23;100.00
41250;BME280;26984;59.928;30.306;2023-04-21T03:34:24;101858.13;;;5.26;100.00
41250;BME280;26984;59.928;30.306;2023-04-21T03:36:52;101863.78;;;5.23;100.00
41250;BME280;26984;59.928;30.306;2023-04-21T03:39:20;101859.13;;;5.25;100.00
41250;BME280;26984;59.928;30.306;2023-04-21T03:41:50;101859.81;;;5.27;100.00
41250;BME280;26984;59.928;30.306;2023-04-21T03:44:18;101855.25;;;5.37;100.00
41250;BME280;26984;59.928;30.306;2023-04-21T03:46:45;101853.53;;;5.36;100.00
41250;BME280;26984;59.928;30.306;2023-04-21T03:49:13;101860.66;;;5.45;100.00
41250;BME280;26984;59.928;30.306;2023-04-21T03:51:40;101859.53;;;5.48;100.00
41250;BME280;26984;59.928;30.306;2023-04-21T03:54:08;101857.81;;;5.47;100.00
41250;BME280;26984;59.928;30.306;2023-04-21T03:56:35;101850.88;;;5.54;100.00
41250;BME280;26984;59.928;30.306;2023-04-21T03:59:04;101856.44;;;5.61;100.00
41250;BME280;26984;59.928;30.306;2023-04-21T04:01:32;101860.03;;;5.69;100.00
41250;BME280;26984;59.928;30.306;2023-04-21T04:03:59;101860.41;;;5.74;100.00
41250;BME280;26984;59.928;30.306;2023-04-21T04:06:27;101864.75;;;5.75;100.00
41250;BME280;26984;59.928;30.306;2023-04-21T04:08:54;101856.28;;;5.80;100.00
41250;BME280;26984;59.928;30.306;2023-04-21T04:11:22;101855.59;;;5.78;100.00
41250;BME280;26984;59.928;30.306;2023-04-21T04:13:49;101852.31;;;5.84;100.00
41250;BME280;26984;59.928;30.306;2023-04-21T04:16:18;101861.53;;;5.90;100.00
41250;BME280;26984;59.928;30.306;2023-04-21T04:18:45;101847.19;;;5.91;100.00
41250;BME280;26984;59.928;30.306;2023-04-21T04:21:13;101838.47;;;5.89;100.00
41250;BME280;26984;59.928;30.306;2023-04-21T04:23:40;101849.00;;;5.90;100.00
41250;BME280;26984;59.928;30.306;2023-04-21T04:26:09;101846.13;;;6.02;100.00
41250;BME280;26984;59.928;30.306;2023-04-21T04:28:36;101850.69;;;6.09;100.00
41250;BME280;26984;59.928;30.306;2023-04-21T04:31:05;101851.41;;;6.19;100.00
41250;BME280;26984;59.928;30.306;2023-04-21T04:33:34;101847.47;;;6.32;100.00
41250;BME280;26984;59.928;30.306;2023-04-21T04:36:01;101838.13;;;6.36;100.00
41250;BME280;26984;59.928;30.306;2023-04-21T04:38:29;101838.84;;;6.46;100.00
41250;BME280;26984;59.928;30.306;2023-04-21T04:40:59;101840.72;;;6.54;100.00
41250;BME280;26984;59.928;30.306;2023-04-21T04:43:27;101846.59;;;6.57;100.00
41250;BME280;26984;59.928;30.306;2023-04-21T04:45:55;101852.34;;;6.70;100.00
41250;BME280;26984;59.928;30.306;2023-04-21T04:48:23;101848.81;;;6.70;100.00
41250;BME280;26984;59.928;30.306;2023-04-21T04:50:52;101834.44;;;6.79;100.00
41250;BME280;26984;59.928;30.306;2023-04-21T04:53:20;101826.47;;;6.87;100.00
41250;BME280;26984;59.928;30.306;2023-04-21T04:55:47;101819.13;;;6.98;100.00
41250;BME280;26984;59.928;30.306;2023-04-21T04:58:15;101810.06;;;6.99;100.00
41250;BME280;26984;59.928;30.306;2023-04-21T05:00:42;101821.63;;;7.07;100.00
41250;BME280;26984;59.928;30.306;2023-04-21T05:03:10;101817.47;;;7.13;100.00
41250;BME280;26984;59.928;30.306;2023-04-21T05:05:37;101816.16;;;7.33;100.00
41250;BME280;26984;59.928;30.306;2023-04-21T05:08:06;101822.22;;;7.60;100.00
41250;BME280;26984;59.928;30.306;2023-04-21T05:10:34;101816.84;;;7.76;100.00
41250;BME280;26984;59.928;30.306;2023-04-21T05:13:01;101815.16;;;7.83;100.00
41250;BME280;26984;59.928;30.306;2023-04-21T05:15:29;101824.88;;;7.84;100.00
41250;BME280;26984;59.928;30.306;2023-04-21T05:17:56;101827.72;;;7.91;100.00
41250;BME280;26984;59.928;30.306;2023-04-21T05:20:24;101829.06;;;7.95;100.00
41250;BME280;26984;59.928;30.306;2023-04-21T05:22:51;101822.00;;;8.02;100.00
41250;BME280;26984;59.928;30.306;2023-04-21T05:25:20;101828.03;;;8.12;100.00
41250;BME280;26984;59.928;30.306;2023-04-21T05:27:47;101816.88;;;8.32;100.00
41250;BME280;26984;59.928;30.306;2023-04-21T05:30:15;101818.41;;;8.43;100.00
41250;BME280;26984;59.928;30.306;2023-04-21T05:32:42;101822.78;;;8.44;100.00
41250;BME280;26984;59.928;30.306;2023-04-21T05:35:10;101814.72;;;8.44;100.00
41250;BME280;26984;59.928;30.306;2023-04-21T05:37:37;101822.44;;;8.38;100.00
41250;BME280;26984;59.928;30.306;2023-04-21T05:40:05;101813.03;;;8.34;100.00
41250;BME280;26984;59.928;30.306;2023-04-21T05:42:34;101809.50;;;8.34;100.00
41250;BME280;26984;59.928;30.306;2023-04-21T05:45:02;101805.00;;;8.26;100.00
41250;BME280;26984;59.928;30.306;2023-04-21T05:47:30;101808.53;;;8.27;100.00
41250;BME280;26984;59.928;30.306;2023-04-21T05:49:57;101798.47;;;8.21;100.00
41250;BME280;26984;59.928;30.306;2023-04-21T05:52:25;101793.94;;;8.21;100.00
41250;BME280;26984;59.928;30.306;2023-04-21T05:54:52;101808.56;;;8.10;100.00
41250;BME280;26984;59.928;30.306;2023-04-21T05:57:20;101805.38;;;8.07;100.00
41250;BME280;26984;59.928;30.306;2023-04-21T05:59:49;101804.53;;;8.14;100.00
41250;BME280;26984;59.928;30.306;2023-04-21T06:02:16;101802.34;;;8.10;100.00
41250;BME280;26984;59.928;30.306;2023-04-21T06:04:44;101798.16;;;8.15;100.00
41250;BME280;26984;59.928;30.306;2023-04-21T06:07:12;101800.81;;;8.24;100.00
41250;BME280;26984;59.928;30.306;2023-04-21T06:09:39;101806.81;;;8.34;100.00
41250;BME280;26984;59.928;30.306;2023-04-21T06:12:07;101797.59;;;8.36;100.00
41250;BME280;26984;59.928;30.306;2023-04-21T06:14:34;101799.44;;;8.44;100.00
41250;BME280;26984;59.928;30.306;2023-04-21T06:17:03;101797.94;;;8.42;100.00
41250;BME280;26984;59.928;30.306;2023-04-21T06:19:35;101803.78;;;8.45;100.00
41250;BME280;26984;59.928;30.306;2023-04-21T06:22:02;101806.81;;;8.50;100.00
41250;BME280;26984;59.928;30.306;2023-04-21T06:24:31;101814.16;;;8.56;100.00
41250;BME280;26984;59.928;30.306;2023-04-21T06:26:58;101807.88;;;8.72;100.00
41250;BME280;26984;59.928;30.306;2023-04-21T06:29:26;101808.09;;;8.94;100.00
41250;BME280;26984;59.928;30.306;2023-04-21T06:31:54;101808.59;;;8.97;100.00
41250;BME280;26984;59.928;30.306;2023-04-21T06:34:22;101810.56;;;9.03;100.00
41250;BME280;26984;59.928;30.306;2023-04-21T06:36:50;101806.03;;;9.04;100.00
41250;BME280;26984;59.928;30.306;2023-04-21T06:39:18;101803.78;;;9.16;100.00
41250;BME280;26984;59.928;30.306;2023-04-21T06:41:45;101798.03;;;9.19;100.00
41250;BME280;26984;59.928;30.306;2023-04-21T06:44:13;101803.00;;;9.30;100.00
41250;BME280;26984;59.928;30.306;2023-04-21T06:46:40;101806.28;;;9.40;100.00
41250;BME280;26984;59.928;30.306;2023-04-21T06:49:08;101801.78;;;9.55;99.39
41250;BME280;26984;59.928;30.306;2023-04-21T06:51:36;101805.16;;;9.57;99.31
41250;BME280;26984;59.928;30.306;2023-04-21T06:54:04;101796.53;;;9.77;98.15
41250;BME280;26984;59.928;30.306;2023-04-21T06:56:31;101800.47;;;9.89;97.72
41250;BME280;26984;59.928;30.306;2023-04-21T06:58:59;101796.13;;;10.03;97.36
41250;BME280;26984;59.928;30.306;2023-04-21T07:01:26;101793.91;;;10.21;94.95
41250;BME280;26984;59.928;30.306;2023-04-21T07:03:54;101782.84;;;10.16;94.54
41250;BME280;26984;59.928;30.306;2023-04-21T07:06:21;101790.09;;;10.16;94.39
41250;BME280;26984;59.928;30.306;2023-04-21T07:08:50;101791.84;;;10.08;94.30
41250;BME280;26984;59.928;30.306;2023-04-21T07:11:18;101788.78;;;9.97;95.07
41250;BME280;26984;59.928;30.306;2023-04-21T07:13:45;101783.56;;;9.95;94.72
41250;BME280;26984;59.928;30.306;2023-04-21T07:16:13;101778.47;;;9.86;95.17
41250;BME280;26984;59.928;30.306;2023-04-21T07:18:40;101788.78;;;9.82;95.71
41250;BME280;26984;59.928;30.306;2023-04-21T07:21:08;101783.56;;;9.80;95.22
41250;BME280;26984;59.928;30.306;2023-04-21T07:23:35;101778.81;;;9.68;95.72
41250;BME280;26984;59.928;30.306;2023-04-21T07:26:04;101773.03;;;9.56;96.97
41250;BME280;26984;59.928;30.306;2023-04-21T07:28:31;101783.53;;;9.66;97.32
41250;BME280;26984;59.928;30.306;2023-04-21T07:30:59;101773.34;;;9.76;95.88
41250;BME280;26984;59.928;30.306;2023-04-21T07:33:26;101781.19;;;9.63;96.73
41250;BME280;26984;59.928;30.306;2023-04-21T07:35:54;101775.00;;;9.62;97.24
41250;BME280;26984;59.928;30.306;2023-04-21T07:38:21;101778.16;;;9.66;96.60
41250;BME280;26984;59.928;30.306;2023-04-21T07:40:49;101780.47;;;9.69;97.13
41250;BME280;26984;59.928;30.306;2023-04-21T07:43:18;101773.53;;;9.74;96.48
41250;BME280;26984;59.928;30.306;2023-04-21T07:45:45;101775.03;;;9.92;96.15
41250;BME280;26984;59.928;30.306;2023-04-21T07:48:13;101771.88;;;10.03;94.84
41250;BME280;26984;59.928;30.306;2023-04-21T07:50:40;101766.31;;;10.04;95.05
41250;BME280;26984;59.928;30.306;2023-04-21T07:53:08;101769.47;;;10.23;94.04
41250;BME280;26984;59.928;30.306;2023-04-21T07:55:35;101772.75;;;10.33;93.01
41250;BME280;26984;59.928;30.306;2023-04-21T07:58:03;101762.56;;;10.28;93.29
41250;BME280;26984;59.928;30.306;2023-04-21T08:00:32;101762.34;;;10.15;93.72
41250;BME280;26984;59.928;30.306;2023-04-21T08:02:59;101758.25;;;10.04;94.66
41250;BME280;26984;59.928;30.306;2023-04-21T08:05:27;101757.88;;;9.93;95.59
41250;BME280;26984;59.928;30.306;2023-04-21T08:07:56;101754.88;;;9.88;96.01
41250;BME280;26984;59.928;30.306;2023-04-21T08:10:23;101748.69;;;10.02;96.06
41250;BME280;26984;59.928;30.306;2023-04-21T08:12:51;101747.47;;;10.19;95.01
41250;BME280;26984;59.928;30.306;2023-04-21T08:15:18;101755.00;;;10.39;93.05
41250;BME280;26984;59.928;30.306;2023-04-21T08:17:47;101751.66;;;10.51;92.24
41250;BME280;26984;59.928;30.306;2023-04-21T08:20:15;101746.06;;;10.68;91.61
41250;BME280;26984;59.928;30.306;2023-04-21T08:22:42;101749.44;;;10.76;89.95
41250;BME280;26984;59.928;30.306;2023-04-21T08:25:10;101747.22;;;10.80;89.93
41250;BME280;26984;59.928;30.306;2023-04-21T08:27:37;101740.09;;;10.72;90.11
41250;BME280;26984;59.928;30.306;2023-04-21T08:30:05;101747.13;;;10.73;90.59
41250;BME280;26984;59.928;30.306;2023-04-21T08:32:33;101737.25;;;10.81;89.63
41250;BME280;26984;59.928;30.306;2023-04-21T08:35:02;101737.00;;;10.75;89.12
41250;BME280;26984;59.928;30.306;2023-04-21T08:37:30;101736.63;;;10.78;89.13
41250;BME280;26984;59.928;30.306;2023-04-21T08:39:57;101738.41;;;10.71;89.46
41250;BME280;26984;59.928;30.306;2023-04-21T08:42:24;101736.78;;;10.55;89.96
41250;BME280;26984;59.928;30.306;2023-04-21T08:44:52;101733.91;;;10.57;90.77
41250;BME280;26984;59.928;30.306;2023-04-21T08:47:19;101725.31;;;10.68;89.46
41250;BME280;26984;59.928;30.306;2023-04-21T08:49:48;101730.63;;;10.62;89.59
41250;BME280;26984;59.928;30.306;2023-04-21T08:52:18;101730.25;;;10.65;89.23
41250;BME280;26984;59.928;30.306;2023-04-21T08:54:45;101719.44;;;10.79;88.55
41250;BME280;26984;59.928;30.306;2023-04-21T08:57:16;101721.88;;;10.96;87.35
41250;BME280;26984;59.928;30.306;2023-04-21T08:59:44;101716.22;;;11.12;85.84
41250;BME280;26984;59.928;30.306;2023-04-21T09:02:12;101716.13;;;11.27;84.84
41250;BME280;26984;59.928;30.306;2023-04-21T09:04:41;101717.19;;;11.26;84.45
41250;BME280;26984;59.928;30.306;2023-04-21T09:07:09;101716.97;;;11.27;84.56
41250;BME280;26984;59.928;30.306;2023-04-21T09:09:54;101708.53;;;11.37;84.45
41250;BME280;26984;59.928;30.306;2023-04-21T09:12:22;101708.94;;;11.62;83.11
41250;BME280;26984;59.928;30.306;2023-04-21T09:14:50;101715.91;;;11.78;81.30
41250;BME280;26984;59.928;30.306;2023-04-21T09:17:17;101713.34;;;11.70;80.99
41250;BME280;26984;59.928;30.306;2023-04-21T09:19:45;101705.47;;;11.40;81.74
41250;BME280;26984;59.928;30.306;2023-04-21T09:22:15;101708.06;;;11.06;83.90
41250;BME280;26984;59.928;30.306;2023-04-21T09:24:44;101707.88;;;11.07;84.56
41250;BME280;26984;59.928;30.306;2023-04-21T09:27:13;101702.66;;;11.06;84.95
41250;BME280;26984;59.928;30.306;2023-04-21T09:29:44;101703.47;;;10.99;85.60
41250;BME280;26984;59.928;30.306;2023-04-21T09:32:15;101706.41;;;11.05;85.69
41250;BME280;26984;59.928;30.306;2023-04-21T09:34:43;101698.00;;;11.14;85.23
41250;BME280;26984;59.928;30.306;2023-04-21T09:37:11;101701.59;;;11.21;84.68
41250;BME280;26984;59.928;30.306;2023-04-21T09:39:40;101701.06;;;11.33;84.41
41250;BME280;26984;59.928;30.306;2023-04-21T09:42:10;101693.84;;;11.40;84.02
41250;BME280;26984;59.928;30.306;2023-04-21T09:44:39;101699.47;;;11.45;83.63
41250;BME280;26984;59.928;30.306;2023-04-21T09:47:08;101692.25;;;11.52;83.74
41250;BME280;26984;59.928;30.306;2023-04-21T09:49:36;101689.31;;;11.47;83.43
41250;BME280;26984;59.928;30.306;2023-04-21T09:52:10;101694.06;;;11.45;83.81
41250;BME280;26984;59.928;30.306;2023-04-21T09:54:42;101688.78;;;11.58;83.10
41250;BME280;26984;59.928;30.306;2023-04-21T09:57:11;101681.38;;;11.67;82.12
41250;BME280;26984;59.928;30.306;2023-04-21T09:59:43;101683.47;;;11.71;81.67
41250;BME280;26984;59.928;30.306;2023-04-21T10:02:11;101677.72;;;11.81;80.93
41250;BME280;26984;59.928;30.306;2023-04-21T10:04:39;101672.66;;;12.00;80.24
41250;BME280;26984;59.928;30.306;2023-04-21T10:07:08;101677.56;;;12.24;78.78
41250;BME280;26984;59.928;30.306;2023-04-21T10:09:37;101672.59;;;12.41;77.22
41250;BME280;26984;59.928;30.306;2023-04-21T10:12:06;101668.69;;;12.50;76.60
41250;BME280;26984;59.928;30.306;2023-04-21T10:14:34;101667.47;;;12.66;75.59
41250;BME280;26984;59.928;30.306;2023-04-21T10:17:04;101667.06;;;12.76;74.57
41250;BME280;26984;59.928;30.306;2023-04-21T10:19:33;101669.16;;;12.87;73.44
41250;BME280;26984;59.928;30.306;2023-04-21T10:22:05;101665.25;;;12.96;73.06
41250;BME280;26984;59.928;30.306;2023-04-21T10:24:35;101656.09;;;13.04;71.99
41250;BME280;26984;59.928;30.306;2023-04-21T10:27:03;101655.25;;;13.16;71.95
41250;BME280;26984;59.928;30.306;2023-04-21T10:29:32;101649.84;;;13.30;70.48
41250;BME280;26984;59.928;30.306;2023-04-21T10:32:00;101650.50;;;13.38;70.36
41250;BME280;26984;59.928;30.306;2023-04-21T10:34:34;101639.63;;;13.52;69.34
41250;BME280;26984;59.928;30.306;2023-04-21T10:37:12;101643.78;;;13.54;68.91
41250;BME280;26984;59.928;30.306;2023-04-21T10:39:42;101637.13;;;13.63;67.75
41250;BME280;26984;59.928;30.306;2023-04-21T10:42:20;101645.81;;;13.72;66.77
41250;BME280;26984;59.928;30.306;2023-04-21T10:47:35;101642.03;;;13.86;65.91
41250;BME280;26984;59.928;30.306;2023-04-21T10:50:12;101641.66;;;13.76;65.60
41250;BME280;26984;59.928;30.306;2023-04-21T10:52:42;101631.66;;;13.77;65.68
41250;BME280;26984;59.928;30.306;2023-04-21T10:55:10;101638.06;;;13.96;64.79
41250;BME280;26984;59.928;30.306;2023-04-21T10:57:41;101624.91;;;13.99;63.88
41250;BME280;26984;59.928;30.306;2023-04-21T11:00:10;101631.59;;;13.90;64.19
41250;BME280;26984;59.928;30.306;2023-04-21T11:02:38;101623.44;;;14.03;64.34
41250;BME280;26984;59.928;30.306;2023-04-21T11:05:06;101622.75;;;14.14;63.12
41250;BME280;26984;59.928;30.306;2023-04-21T11:07:36;101620.88;;;14.15;62.78
41250;BME280;26984;59.928;30.306;2023-04-21T11:10:04;101621.16;;;14.00;63.60
41250;BME280;26984;59.928;30.306;2023-04-21T11:12:33;101620.16;;;13.88;63.53
41250;BME280;26984;59.928;30.306;2023-04-21T11:15:02;101625.63;;;13.68;64.46
41250;BME280;26984;59.928;30.306;2023-04-21T11:17:30;101614.03;;;13.41;65.74
41250;BME280;26984;59.928;30.306;2023-04-21T11:19:57;101618.66;;;13.27;67.12
41250;BME280;26984;59.928;30.306;2023-04-21T11:22:25;101617.19;;;13.38;66.82
41250;BME280;26984;59.928;30.306;2023-04-21T11:24:55;101612.94;;;13.55;66.27
41250;BME280;26984;59.928;30.306;2023-04-21T11:27:24;101604.38;;;13.78;65.95
41250;BME280;26984;59.928;30.306;2023-04-21T11:29:52;101606.13;;;14.04;64.47
41250;BME280;26984;59.928;30.306;2023-04-21T11:32:20;101602.13;;;14.13;63.89
41250;BME280;26984;59.928;30.306;2023-04-21T11:34:48;101609.47;;;14.00;64.48
41250;BME280;26984;59.928;30.306;2023-04-21T11:37:19;101596.56;;;14.02;64.38
41250;BME280;26984;59.928;30.306;2023-04-21T11:39:47;101596.78;;;13.94;64.65
41250;BME280;26984;59.928;30.306;2023-04-21T11:42:20;101598.28;;;13.83;64.60
41250;BME280;26984;59.928;30.306;2023-04-21T11:44:48;101600.66;;;13.66;65.76
41250;BME280;26984;59.928;30.306;2023-04-21T11:47:16;101597.50;;;13.69;65.99
41250;BME280;26984;59.928;30.306;2023-04-21T11:49:45;101594.00;;;13.55;66.62
41250;BME280;26984;59.928;30.306;2023-04-21T11:52:22;101589.47;;;13.49;67.36
41250;BME280;26984;59.928;30.306;2023-04-21T11:54:53;101577.81;;;13.42;67.08
41250;BME280;26984;59.928;30.306;2023-04-21T11:57:23;101584.28;;;13.34;67.42
41250;BME280;26984;59.928;30.306;2023-04-21T11:59:51;101585.13;;;13.35;67.68
41250;BME280;26984;59.928;30.306;2023-04-21T12:02:23;101587.00;;;13.34;68.04
41250;BME280;26984;59.928;30.306;2023-04-21T12:05:00;101588.66;;;13.42;67.60
41250;BME280;26984;59.928;30.306;2023-04-21T12:07:29;101580.72;;;13.47;67.30
41250;BME280;26984;59.928;30.306;2023-04-21T12:09:57;101581.72;;;13.59;66.60
41250;BME280;26984;59.928;30.306;2023-04-21T12:12:26;101587.34;;;13.58;66.85
41250;BME280;26984;59.928;30.306;2023-04-21T12:14:53;101578.59;;;13.62;66.66
41250;BME280;26984;59.928;30.306;2023-04-21T12:17:21;101586.47;;;13.71;66.41
41250;BME280;26984;59.928;30.306;2023-04-21T12:19:48;101582.28;;;13.75;65.98
41250;BME280;26984;59.928;30.306;2023-04-21T12:22:16;101576.91;;;13.68;66.10
41250;BME280;26984;59.928;30.306;2023-04-21T12:24:44;101583.97;;;13.69;66.36
41250;BME280;26984;59.928;30.306;2023-04-21T12:27:12;101579.84;;;13.67;65.87
41250;BME280;26984;59.928;30.306;2023-04-21T12:29:41;101568.78;;;13.61;66.43
41250;BME280;26984;59.928;30.306;2023-04-21T12:32:08;101580.03;;;13.58;66.43
41250;BME280;26984;59.928;30.306;2023-04-21T12:34:36;101570.50;;;13.56;66.42
41250;BME280;26984;59.928;30.306;2023-04-21T12:37:03;101571.31;;;13.56;66.37
41250;BME280;26984;59.928;30.306;2023-04-21T12:39:31;101572.56;;;13.60;66.37
41250;BME280;26984;59.928;30.306;2023-04-21T12:41:58;101571.47;;;13.68;66.27
41250;BME280;26984;59.928;30.306;2023-04-21T12:44:26;101558.56;;;13.77;66.02
41250;BME280;26984;59.928;30.306;2023-04-21T12:46:55;101561.44;;;13.75;65.80
41250;BME280;26984;59.928;30.306;2023-04-21T12:49:23;101562.06;;;13.84;65.87
41250;BME280;26984;59.928;30.306;2023-04-21T12:51:51;101558.25;;;13.98;65.10